Terminal Aerodrome Forecast
Issued by NWS

Home | Current Version | Previous Version | Graphics & Text | Print | Product List | Glossary On
Versions: 1 2 3 4 5 6 7 8 9 10 11 12 13 14 15
000
FTUS43 KMPX 111700
TAFRWF
TAF
KRWF 111734Z 1118/1218 19012KT P6SM BKN025
     FM111930 20009KT P6SM BKN035
     FM120000 19007KT P6SM SCT040
     FM120700 30004KT P6SM BKN200
     FM121400 30006KT P6SM SCT040 BKN150
      TEMPO 1215/1217 5SM -SHRA BKN050 OVC090=

USA.gov is the U.S. government's official web portal to all federal, state and local government web resources and services.